Terminal Aerodrome Forecast
Issued by NWS Tampa Bay Area, FL

Home | Current Version | Previous Version | Text Only | Print | Product List | Glossary On
Versions: 1 2 3 4 5 6 7 8 9 10 11 12
000
FTUS42 KTBW 040529
TAFSRQ
TAF
KSRQ 040529Z 0406/0506 10005KT P6SM BKN250
     FM041400 15005KT P6SM FEW025 SCT250
     FM041700 25009KT P6SM VCTS SCT035CB BKN250
     FM042300 VRB05KT P6SM VCTS BKN060CB BKN250
     FM050300 09004KT P6SM BKN050 BKN250=

USA.gov is the U.S. government's official web portal to all federal, state and local government web resources and services.